sensor_id;sensor_type;location;lat;lon;timestamp;P1;durP1;ratioP1;P2;durP2;ratioP2
70924;SDS011;58577;52.410;13.242;2022-11-13T00:01:37;43.83;;;24.63;;
70924;SDS011;58577;52.410;13.242;2022-11-13T00:04:41;40.92;;;25.00;;
70924;SDS011;58577;52.410;13.242;2022-11-13T00:07:45;39.88;;;24.38;;
70924;SDS011;58577;52.410;13.242;2022-11-13T00:10:50;41.35;;;24.10;;
70924;SDS011;58577;52.410;13.242;2022-11-13T00:13:55;36.70;;;22.80;;
70924;SDS011;58577;52.410;13.242;2022-11-13T00:16:59;42.45;;;23.65;;
70924;SDS011;58577;52.410;13.242;2022-11-13T00:20:03;42.45;;;24.00;;
70924;SDS011;58577;52.410;13.242;2022-11-13T00:23:08;40.90;;;25.20;;
70924;SDS011;58577;52.410;13.242;2022-11-13T00:29:21;45.95;;;23.98;;
70924;SDS011;58577;52.410;13.242;2022-11-13T00:32:26;39.85;;;23.77;;
70924;SDS011;58577;52.410;13.242;2022-11-13T00:35:31;40.63;;;23.85;;
70924;SDS011;58577;52.410;13.242;2022-11-13T00:38:37;42.03;;;24.08;;
70924;SDS011;58577;52.410;13.242;2022-11-13T00:41:42;35.40;;;21.30;;
70924;SDS011;58577;52.410;13.242;2022-11-13T00:44:46;39.92;;;23.27;;
70924;SDS011;58577;52.410;13.242;2022-11-13T00:47:51;42.15;;;23.65;;
70924;SDS011;58577;52.410;13.242;2022-11-13T00:50:55;39.50;;;22.42;;
70924;SDS011;58577;52.410;13.242;2022-11-13T00:54:00;37.60;;;21.73;;
70924;SDS011;58577;52.410;13.242;2022-11-13T00:57:05;39.50;;;23.20;;
70924;SDS011;58577;52.410;13.242;2022-11-13T01:00:09;39.63;;;22.40;;
70924;SDS011;58577;52.410;13.242;2022-11-13T01:03:15;38.63;;;21.50;;
70924;SDS011;58577;52.410;13.242;2022-11-13T01:06:21;38.33;;;22.38;;
70924;SDS011;58577;52.410;13.242;2022-11-13T01:09:28;39.15;;;22.20;;
70924;SDS011;58577;52.410;13.242;2022-11-13T01:12:32;37.35;;;22.00;;
70924;SDS011;58577;52.410;13.242;2022-11-13T01:15:40;36.60;;;22.42;;
70924;SDS011;58577;52.410;13.242;2022-11-13T01:18:46;37.15;;;20.27;;
70924;SDS011;58577;52.410;13.242;2022-11-13T01:21:51;36.03;;;21.10;;
70924;SDS011;58577;52.410;13.242;2022-11-13T01:24:58;36.20;;;21.13;;
70924;SDS011;58577;52.410;13.242;2022-11-13T01:28:03;35.55;;;20.98;;
70924;SDS011;58577;52.410;13.242;2022-11-13T01:31:08;37.67;;;21.05;;
70924;SDS011;58577;52.410;13.242;2022-11-13T01:34:15;38.97;;;21.02;;
70924;SDS011;58577;52.410;13.242;2022-11-13T01:37:19;34.55;;;20.00;;
70924;SDS011;58577;52.410;13.242;2022-11-13T01:40:24;38.65;;;22.25;;
70924;SDS011;58577;52.410;13.242;2022-11-13T01:43:30;34.85;;;21.15;;
70924;SDS011;58577;52.410;13.242;2022-11-13T01:46:38;38.20;;;19.65;;
70924;SDS011;58577;52.410;13.242;2022-11-13T01:49:45;37.30;;;19.95;;
70924;SDS011;58577;52.410;13.242;2022-11-13T01:52:52;37.80;;;20.35;;
70924;SDS011;58577;52.410;13.242;2022-11-13T01:55:57;36.88;;;20.13;;
70924;SDS011;58577;52.410;13.242;2022-11-13T01:59:12;36.88;;;21.17;;
70924;SDS011;58577;52.410;13.242;2022-11-13T02:02:19;36.72;;;20.52;;
70924;SDS011;58577;52.410;13.242;2022-11-13T02:05:23;37.83;;;20.60;;
70924;SDS011;58577;52.410;13.242;2022-11-13T02:08:28;34.58;;;19.08;;
70924;SDS011;58577;52.410;13.242;2022-11-13T02:11:32;35.58;;;19.40;;
70924;SDS011;58577;52.410;13.242;2022-11-13T02:14:38;34.80;;;19.20;;
70924;SDS011;58577;52.410;13.242;2022-11-13T02:17:47;33.92;;;19.55;;
70924;SDS011;58577;52.410;13.242;2022-11-13T02:20:56;34.75;;;19.63;;
70924;SDS011;58577;52.410;13.242;2022-11-13T02:30:54;32.45;;;17.83;;
70924;SDS011;58577;52.410;13.242;2022-11-13T02:34:00;34.38;;;18.50;;
70924;SDS011;58577;52.410;13.242;2022-11-13T02:37:05;37.30;;;18.77;;
70924;SDS011;58577;52.410;13.242;2022-11-13T02:40:09;34.85;;;18.52;;
70924;SDS011;58577;52.410;13.242;2022-11-13T02:43:14;34.20;;;17.65;;
70924;SDS011;58577;52.410;13.242;2022-11-13T02:46:19;33.03;;;18.90;;
70924;SDS011;58577;52.410;13.242;2022-11-13T02:49:24;33.20;;;17.75;;
70924;SDS011;58577;52.410;13.242;2022-11-13T02:52:28;33.78;;;18.67;;
70924;SDS011;58577;52.410;13.242;2022-11-13T02:55:33;35.25;;;17.60;;
70924;SDS011;58577;52.410;13.242;2022-11-13T02:58:38;34.35;;;18.90;;
70924;SDS011;58577;52.410;13.242;2022-11-13T03:01:43;33.53;;;18.65;;
70924;SDS011;58577;52.410;13.242;2022-11-13T03:04:48;34.60;;;17.00;;
70924;SDS011;58577;52.410;13.242;2022-11-13T03:07:52;34.13;;;16.52;;
70924;SDS011;58577;52.410;13.242;2022-11-13T03:10:57;31.92;;;17.20;;
70924;SDS011;58577;52.410;13.242;2022-11-13T03:14:01;31.20;;;16.10;;
70924;SDS011;58577;52.410;13.242;2022-11-13T03:17:05;32.50;;;16.60;;
70924;SDS011;58577;52.410;13.242;2022-11-13T03:20:10;35.30;;;17.48;;
70924;SDS011;58577;52.410;13.242;2022-11-13T03:23:15;29.13;;;15.88;;
70924;SDS011;58577;52.410;13.242;2022-11-13T03:26:19;27.17;;;15.82;;
70924;SDS011;58577;52.410;13.242;2022-11-13T03:29:23;27.02;;;15.35;;
70924;SDS011;58577;52.410;13.242;2022-11-13T03:32:28;28.10;;;14.65;;
70924;SDS011;58577;52.410;13.242;2022-11-13T03:35:32;27.92;;;15.18;;
70924;SDS011;58577;52.410;13.242;2022-11-13T03:38:37;27.60;;;14.80;;
70924;SDS011;58577;52.410;13.242;2022-11-13T03:41:42;30.88;;;15.68;;
70924;SDS011;58577;52.410;13.242;2022-11-13T03:44:46;30.70;;;15.02;;
70924;SDS011;58577;52.410;13.242;2022-11-13T03:47:51;29.48;;;15.32;;
70924;SDS011;58577;52.410;13.242;2022-11-13T03:50:55;26.13;;;13.65;;
70924;SDS011;58577;52.410;13.242;2022-11-13T03:54:00;27.83;;;15.63;;
70924;SDS011;58577;52.410;13.242;2022-11-13T03:57:05;25.90;;;12.85;;
70924;SDS011;58577;52.410;13.242;2022-11-13T04:00:09;30.48;;;14.57;;
70924;SDS011;58577;52.410;13.242;2022-11-13T04:03:14;30.73;;;15.07;;
70924;SDS011;58577;52.410;13.242;2022-11-13T04:06:19;28.10;;;14.30;;
70924;SDS011;58577;52.410;13.242;2022-11-13T04:09:24;28.80;;;13.85;;
70924;SDS011;58577;52.410;13.242;2022-11-13T04:12:29;28.73;;;13.90;;
70924;SDS011;58577;52.410;13.242;2022-11-13T04:15:33;26.70;;;13.82;;
70924;SDS011;58577;52.410;13.242;2022-11-13T04:18:38;24.10;;;12.20;;
70924;SDS011;58577;52.410;13.242;2022-11-13T04:21:42;28.20;;;14.75;;
70924;SDS011;58577;52.410;13.242;2022-11-13T04:24:47;27.10;;;13.27;;
70924;SDS011;58577;52.410;13.242;2022-11-13T04:27:51;26.92;;;14.07;;
70924;SDS011;58577;52.410;13.242;2022-11-13T04:30:56;28.35;;;14.23;;
70924;SDS011;58577;52.410;13.242;2022-11-13T04:34:01;25.90;;;13.15;;
70924;SDS011;58577;52.410;13.242;2022-11-13T04:37:05;27.95;;;13.32;;
70924;SDS011;58577;52.410;13.242;2022-11-13T04:40:09;25.63;;;13.07;;
70924;SDS011;58577;52.410;13.242;2022-11-13T04:43:14;26.77;;;14.07;;
70924;SDS011;58577;52.410;13.242;2022-11-13T04:46:19;25.42;;;12.90;;
70924;SDS011;58577;52.410;13.242;2022-11-13T04:49:23;27.40;;;14.25;;
70924;SDS011;58577;52.410;13.242;2022-11-13T04:52:27;26.90;;;12.55;;
70924;SDS011;58577;52.410;13.242;2022-11-13T04:55:32;27.25;;;13.02;;
70924;SDS011;58577;52.410;13.242;2022-11-13T04:58:36;26.15;;;13.18;;
70924;SDS011;58577;52.410;13.242;2022-11-13T05:01:41;25.63;;;12.75;;
70924;SDS011;58577;52.410;13.242;2022-11-13T05:04:45;25.50;;;13.57;;
70924;SDS011;58577;52.410;13.242;2022-11-13T05:07:49;30.42;;;13.98;;
70924;SDS011;58577;52.410;13.242;2022-11-13T05:10:53;24.30;;;12.65;;
70924;SDS011;58577;52.410;13.242;2022-11-13T05:13:58;23.48;;;12.05;;
70924;SDS011;58577;52.410;13.242;2022-11-13T05:17:03;24.77;;;12.88;;
70924;SDS011;58577;52.410;13.242;2022-11-13T05:20:08;23.30;;;11.07;;
70924;SDS011;58577;52.410;13.242;2022-11-13T05:23:13;20.40;;;10.55;;
70924;SDS011;58577;52.410;13.242;2022-11-13T05:26:17;23.35;;;11.25;;
70924;SDS011;58577;52.410;13.242;2022-11-13T05:29:22;20.08;;;10.40;;
70924;SDS011;58577;52.410;13.242;2022-11-13T05:32:26;21.45;;;10.60;;
70924;SDS011;58577;52.410;13.242;2022-11-13T05:35:31;23.42;;;11.30;;
70924;SDS011;58577;52.410;13.242;2022-11-13T05:38:35;21.75;;;11.20;;
70924;SDS011;58577;52.410;13.242;2022-11-13T05:41:41;25.88;;;11.95;;
70924;SDS011;58577;52.410;13.242;2022-11-13T05:44:45;23.13;;;11.88;;
70924;SDS011;58577;52.410;13.242;2022-11-13T05:47:50;22.63;;;12.00;;
70924;SDS011;58577;52.410;13.242;2022-11-13T05:50:59;22.08;;;10.88;;
70924;SDS011;58577;52.410;13.242;2022-11-13T05:54:07;23.13;;;11.25;;
70924;SDS011;58577;52.410;13.242;2022-11-13T05:57:12;19.60;;;10.75;;
70924;SDS011;58577;52.410;13.242;2022-11-13T06:00:16;22.23;;;10.48;;
70924;SDS011;58577;52.410;13.242;2022-11-13T06:03:21;19.73;;;9.50;;
70924;SDS011;58577;52.410;13.242;2022-11-13T06:06:26;21.85;;;10.27;;
70924;SDS011;58577;52.410;13.242;2022-11-13T06:09:31;19.80;;;10.32;;
70924;SDS011;58577;52.410;13.242;2022-11-13T06:12:36;19.98;;;9.63;;
70924;SDS011;58577;52.410;13.242;2022-11-13T06:15:40;20.55;;;9.70;;
70924;SDS011;58577;52.410;13.242;2022-11-13T06:18:44;19.05;;;9.40;;
70924;SDS011;58577;52.410;13.242;2022-11-13T06:21:49;20.50;;;10.23;;
70924;SDS011;58577;52.410;13.242;2022-11-13T06:24:54;19.67;;;9.63;;
70924;SDS011;58577;52.410;13.242;2022-11-13T06:27:58;20.58;;;10.02;;
70924;SDS011;58577;52.410;13.242;2022-11-13T06:31:07;21.17;;;10.57;;
70924;SDS011;58577;52.410;13.242;2022-11-13T06:34:16;19.73;;;9.80;;
70924;SDS011;58577;52.410;13.242;2022-11-13T06:37:20;19.67;;;9.65;;
70924;SDS011;58577;52.410;13.242;2022-11-13T06:40:25;19.95;;;8.85;;
70924;SDS011;58577;52.410;13.242;2022-11-13T06:43:30;21.35;;;10.00;;
70924;SDS011;58577;52.410;13.242;2022-11-13T06:46:34;20.70;;;10.32;;
70924;SDS011;58577;52.410;13.242;2022-11-13T06:49:39;22.20;;;10.10;;
70924;SDS011;58577;52.410;13.242;2022-11-13T06:52:43;22.17;;;11.18;;
70924;SDS011;58577;52.410;13.242;2022-11-13T06:55:48;23.83;;;11.07;;
70924;SDS011;58577;52.410;13.242;2022-11-13T06:58:53;22.27;;;10.80;;
70924;SDS011;58577;52.410;13.242;2022-11-13T07:01:59;22.08;;;10.85;;
70924;SDS011;58577;52.410;13.242;2022-11-13T07:05:03;20.55;;;11.43;;
70924;SDS011;58577;52.410;13.242;2022-11-13T07:08:08;22.98;;;11.80;;
70924;SDS011;58577;52.410;13.242;2022-11-13T07:11:14;24.83;;;12.13;;
70924;SDS011;58577;52.410;13.242;2022-11-13T07:14:20;24.98;;;12.02;;
70924;SDS011;58577;52.410;13.242;2022-11-13T07:17:26;24.75;;;11.27;;
70924;SDS011;58577;52.410;13.242;2022-11-13T07:20:32;24.10;;;12.30;;
70924;SDS011;58577;52.410;13.242;2022-11-13T07:23:38;22.67;;;11.20;;
70924;SDS011;58577;52.410;13.242;2022-11-13T07:26:46;26.15;;;12.25;;
70924;SDS011;58577;52.410;13.242;2022-11-13T07:29:50;24.80;;;11.88;;
70924;SDS011;58577;52.410;13.242;2022-11-13T07:32:59;24.02;;;11.80;;
70924;SDS011;58577;52.410;13.242;2022-11-13T07:36:07;25.60;;;11.43;;
70924;SDS011;58577;52.410;13.242;2022-11-13T07:39:13;23.75;;;12.05;;
70924;SDS011;58577;52.410;13.242;2022-11-13T07:42:17;23.63;;;12.35;;
70924;SDS011;58577;52.410;13.242;2022-11-13T07:45:21;25.50;;;12.82;;
70924;SDS011;58577;52.410;13.242;2022-11-13T07:48:26;26.08;;;12.50;;
70924;SDS011;58577;52.410;13.242;2022-11-13T07:51:31;23.42;;;12.02;;
70924;SDS011;58577;52.410;13.242;2022-11-13T07:54:36;25.27;;;12.00;;
70924;SDS011;58577;52.410;13.242;2022-11-13T07:57:41;25.33;;;12.82;;
70924;SDS011;58577;52.410;13.242;2022-11-13T08:00:45;27.02;;;13.23;;
70924;SDS011;58577;52.410;13.242;2022-11-13T08:03:50;29.23;;;14.13;;
70924;SDS011;58577;52.410;13.242;2022-11-13T08:06:54;30.75;;;14.25;;
70924;SDS011;58577;52.410;13.242;2022-11-13T08:09:58;31.88;;;15.80;;
70924;SDS011;58577;52.410;13.242;2022-11-13T08:13:04;32.65;;;16.33;;
70924;SDS011;58577;52.410;13.242;2022-11-13T08:16:10;31.27;;;15.02;;
70924;SDS011;58577;52.410;13.242;2022-11-13T08:19:15;32.10;;;15.10;;
70924;SDS011;58577;52.410;13.242;2022-11-13T08:22:20;30.40;;;15.30;;
70924;SDS011;58577;52.410;13.242;2022-11-13T08:25:24;30.20;;;15.68;;
70924;SDS011;58577;52.410;13.242;2022-11-13T08:28:29;30.17;;;14.40;;
70924;SDS011;58577;52.410;13.242;2022-11-13T08:31:34;31.23;;;15.40;;
70924;SDS011;58577;52.410;13.242;2022-11-13T08:34:39;29.58;;;15.20;;
70924;SDS011;58577;52.410;13.242;2022-11-13T08:37:44;28.95;;;13.45;;
70924;SDS011;58577;52.410;13.242;2022-11-13T08:40:49;27.77;;;14.30;;
70924;SDS011;58577;52.410;13.242;2022-11-13T08:43:54;29.85;;;13.63;;
70924;SDS011;58577;52.410;13.242;2022-11-13T08:46:58;28.33;;;13.75;;
70924;SDS011;58577;52.410;13.242;2022-11-13T08:50:03;27.38;;;13.15;;
70924;SDS011;58577;52.410;13.242;2022-11-13T08:53:09;27.50;;;12.38;;
70924;SDS011;58577;52.410;13.242;2022-11-13T08:56:14;28.08;;;13.15;;
70924;SDS011;58577;52.410;13.242;2022-11-13T08:59:18;27.98;;;13.13;;
70924;SDS011;58577;52.410;13.242;2022-11-13T09:02:23;25.73;;;13.82;;
70924;SDS011;58577;52.410;13.242;2022-11-13T09:05:28;25.67;;;11.63;;
70924;SDS011;58577;52.410;13.242;2022-11-13T09:08:32;27.27;;;13.05;;
70924;SDS011;58577;52.410;13.242;2022-11-13T09:11:37;25.15;;;11.60;;
70924;SDS011;58577;52.410;13.242;2022-11-13T09:14:41;22.88;;;11.60;;
70924;SDS011;58577;52.410;13.242;2022-11-13T09:17:46;23.65;;;12.23;;
70924;SDS011;58577;52.410;13.242;2022-11-13T09:20:50;25.75;;;13.23;;
70924;SDS011;58577;52.410;13.242;2022-11-13T09:23:55;26.33;;;13.00;;
70924;SDS011;58577;52.410;13.242;2022-11-13T09:26:59;24.27;;;11.85;;
70924;SDS011;58577;52.410;13.242;2022-11-13T09:30:04;26.25;;;13.43;;
70924;SDS011;58577;52.410;13.242;2022-11-13T09:33:09;24.70;;;12.32;;
70924;SDS011;58577;52.410;13.242;2022-11-13T09:36:18;26.15;;;12.90;;
70924;SDS011;58577;52.410;13.242;2022-11-13T09:39:23;21.55;;;11.25;;
70924;SDS011;58577;52.410;13.242;2022-11-13T09:42:27;23.75;;;12.45;;
70924;SDS011;58577;52.410;13.242;2022-11-13T09:45:34;23.25;;;12.73;;
70924;SDS011;58577;52.410;13.242;2022-11-13T09:48:39;24.27;;;12.60;;
70924;SDS011;58577;52.410;13.242;2022-11-13T09:51:49;25.58;;;13.93;;
70924;SDS011;58577;52.410;13.242;2022-11-13T09:54:56;25.00;;;13.70;;
70924;SDS011;58577;52.410;13.242;2022-11-13T09:58:25;28.42;;;15.00;;
70924;SDS011;58577;52.410;13.242;2022-11-13T10:08:18;28.25;;;14.85;;
70924;SDS011;58577;52.410;13.242;2022-11-13T10:11:41;26.55;;;15.35;;
70924;SDS011;58577;52.410;13.242;2022-11-13T10:14:51;27.20;;;15.00;;
70924;SDS011;58577;52.410;13.242;2022-11-13T10:18:21;27.98;;;15.25;;
70924;SDS011;58577;52.410;13.242;2022-11-13T10:21:35;28.77;;;14.63;;
70924;SDS011;58577;52.410;13.242;2022-11-13T10:24:44;28.58;;;15.27;;
70924;SDS011;58577;52.410;13.242;2022-11-13T10:27:55;27.13;;;14.45;;
70924;SDS011;58577;52.410;13.242;2022-11-13T10:31:01;25.05;;;15.05;;
70924;SDS011;58577;52.410;13.242;2022-11-13T10:34:05;26.92;;;14.27;;
70924;SDS011;58577;52.410;13.242;2022-11-13T10:37:16;25.00;;;14.15;;
70924;SDS011;58577;52.410;13.242;2022-11-13T10:40:41;25.90;;;13.73;;
70924;SDS011;58577;52.410;13.242;2022-11-13T10:47:17;28.35;;;16.17;;
70924;SDS011;58577;52.410;13.242;2022-11-13T10:50:24;23.60;;;13.35;;
70924;SDS011;58577;52.410;13.242;2022-11-13T10:53:38;23.45;;;13.07;;
70924;SDS011;58577;52.410;13.242;2022-11-13T10:56:44;23.88;;;12.85;;
70924;SDS011;58577;52.410;13.242;2022-11-13T11:00:00;21.95;;;12.00;;
70924;SDS011;58577;52.410;13.242;2022-11-13T11:03:29;23.90;;;13.15;;
70924;SDS011;58577;52.410;13.242;2022-11-13T11:06:34;23.33;;;12.55;;
70924;SDS011;58577;52.410;13.242;2022-11-13T11:09:40;23.63;;;13.32;;
70924;SDS011;58577;52.410;13.242;2022-11-13T11:12:51;24.95;;;14.02;;
70924;SDS011;58577;52.410;13.242;2022-11-13T11:15:57;23.52;;;12.73;;
70924;SDS011;58577;52.410;13.242;2022-11-13T11:19:07;22.33;;;12.60;;
70924;SDS011;58577;52.410;13.242;2022-11-13T11:22:16;25.27;;;13.70;;
70924;SDS011;58577;52.410;13.242;2022-11-13T11:28:52;21.73;;;11.90;;
70924;SDS011;58577;52.410;13.242;2022-11-13T11:35:41;21.02;;;12.20;;
70924;SDS011;58577;52.410;13.242;2022-11-13T11:39:25;21.77;;;12.15;;
70924;SDS011;58577;52.410;13.242;2022-11-13T11:45:48;23.95;;;12.75;;
70924;SDS011;58577;52.410;13.242;2022-11-13T11:48:54;21.50;;;12.05;;
70924;SDS011;58577;52.410;13.242;2022-11-13T11:52:13;22.05;;;12.65;;
70924;SDS011;58577;52.410;13.242;2022-11-13T12:02:29;22.02;;;12.50;;
70924;SDS011;58577;52.410;13.242;2022-11-13T12:05:54;22.60;;;13.13;;
70924;SDS011;58577;52.410;13.242;2022-11-13T12:27:23;24.42;;;13.85;;
70924;SDS011;58577;52.410;13.242;2022-11-13T12:30:54;22.92;;;12.93;;
70924;SDS011;58577;52.410;13.242;2022-11-13T12:34:28;23.02;;;12.82;;
70924;SDS011;58577;52.410;13.242;2022-11-13T12:41:08;23.25;;;12.93;;
70924;SDS011;58577;52.410;13.242;2022-11-13T12:44:28;21.63;;;12.32;;
70924;SDS011;58577;52.410;13.242;2022-11-13T12:47:36;21.45;;;11.30;;
70924;SDS011;58577;52.410;13.242;2022-11-13T12:50:54;23.58;;;12.88;;
70924;SDS011;58577;52.410;13.242;2022-11-13T12:54:07;21.52;;;11.63;;
70924;SDS011;58577;52.410;13.242;2022-11-13T13:00:26;20.40;;;11.70;;
70924;SDS011;58577;52.410;13.242;2022-11-13T13:10:29;23.05;;;11.23;;
70924;SDS011;58577;52.410;13.242;2022-11-13T13:16:50;19.73;;;10.70;;
70924;SDS011;58577;52.410;13.242;2022-11-13T13:19:56;23.85;;;11.15;;
70924;SDS011;58577;52.410;13.242;2022-11-13T13:23:24;23.15;;;12.70;;
70924;SDS011;58577;52.410;13.242;2022-11-13T13:26:43;20.45;;;11.43;;
70924;SDS011;58577;52.410;13.242;2022-11-13T13:29:49;21.73;;;11.57;;
70924;SDS011;58577;52.410;13.242;2022-11-13T13:33:15;21.83;;;10.82;;
70924;SDS011;58577;52.410;13.242;2022-11-13T13:36:26;22.80;;;12.00;;
70924;SDS011;58577;52.410;13.242;2022-11-13T13:39:48;20.35;;;10.30;;
70924;SDS011;58577;52.410;13.242;2022-11-13T13:46:20;23.00;;;11.57;;
70924;SDS011;58577;52.410;13.242;2022-11-13T13:49:27;20.48;;;11.98;;
70924;SDS011;58577;52.410;13.242;2022-11-13T13:52:32;20.75;;;10.95;;
70924;SDS011;58577;52.410;13.242;2022-11-13T13:55:42;23.85;;;11.48;;
70924;SDS011;58577;52.410;13.242;2022-11-13T13:58:50;22.67;;;12.13;;
70924;SDS011;58577;52.410;13.242;2022-11-13T14:01:57;27.75;;;12.27;;
70924;SDS011;58577;52.410;13.242;2022-11-13T14:05:15;22.63;;;11.15;;
70924;SDS011;58577;52.410;13.242;2022-11-13T14:08:32;20.98;;;11.82;;
70924;SDS011;58577;52.410;13.242;2022-11-13T14:11:36;22.60;;;11.80;;
70924;SDS011;58577;52.410;13.242;2022-11-13T14:14:41;23.33;;;11.52;;
70924;SDS011;58577;52.410;13.242;2022-11-13T14:17:45;23.98;;;13.45;;
70924;SDS011;58577;52.410;13.242;2022-11-13T14:20:51;22.20;;;11.15;;
70924;SDS011;58577;52.410;13.242;2022-11-13T14:23:58;23.98;;;12.32;;
70924;SDS011;58577;52.410;13.242;2022-11-13T14:27:05;23.75;;;12.52;;
70924;SDS011;58577;52.410;13.242;2022-11-13T14:30:50;23.58;;;11.75;;
70924;SDS011;58577;52.410;13.242;2022-11-13T14:33:46;27.58;;;14.32;;
70924;SDS011;58577;52.410;13.242;2022-11-13T14:36:52;27.02;;;13.82;;
70924;SDS011;58577;52.410;13.242;2022-11-13T14:39:58;24.30;;;13.25;;
70924;SDS011;58577;52.410;13.242;2022-11-13T14:43:05;23.10;;;13.60;;
70924;SDS011;58577;52.410;13.242;2022-11-13T14:46:22;25.60;;;14.10;;
70924;SDS011;58577;52.410;13.242;2022-11-13T14:49:30;26.23;;;13.05;;
70924;SDS011;58577;52.410;13.242;2022-11-13T14:52:38;26.73;;;14.13;;
70924;SDS011;58577;52.410;13.242;2022-11-13T14:55:50;24.27;;;11.98;;
70924;SDS011;58577;52.410;13.242;2022-11-13T14:59:05;27.30;;;13.88;;
70924;SDS011;58577;52.410;13.242;2022-11-13T15:02:11;29.58;;;14.93;;
70924;SDS011;58577;52.410;13.242;2022-11-13T15:05:16;24.75;;;13.55;;
70924;SDS011;58577;52.410;13.242;2022-11-13T15:08:20;28.90;;;14.68;;
70924;SDS011;58577;52.410;13.242;2022-11-13T15:11:25;25.17;;;13.57;;
70924;SDS011;58577;52.410;13.242;2022-11-13T15:14:30;28.33;;;15.30;;
70924;SDS011;58577;52.410;13.242;2022-11-13T15:17:36;30.67;;;14.80;;
70924;SDS011;58577;52.410;13.242;2022-11-13T15:20:41;28.85;;;14.95;;
70924;SDS011;58577;52.410;13.242;2022-11-13T15:23:47;28.48;;;14.73;;
70924;SDS011;58577;52.410;13.242;2022-11-13T15:26:52;30.20;;;15.45;;
70924;SDS011;58577;52.410;13.242;2022-11-13T15:29:57;31.70;;;16.02;;
70924;SDS011;58577;52.410;13.242;2022-11-13T15:33:01;52.67;;;26.75;;
70924;SDS011;58577;52.410;13.242;2022-11-13T15:36:09;28.25;;;15.73;;
70924;SDS011;58577;52.410;13.242;2022-11-13T15:39:14;29.23;;;15.25;;
70924;SDS011;58577;52.410;13.242;2022-11-13T15:42:20;28.35;;;14.38;;
70924;SDS011;58577;52.410;13.242;2022-11-13T15:45:31;27.42;;;14.40;;
70924;SDS011;58577;52.410;13.242;2022-11-13T15:48:36;28.67;;;13.82;;
70924;SDS011;58577;52.410;13.242;2022-11-13T15:51:43;31.25;;;15.23;;
70924;SDS011;58577;52.410;13.242;2022-11-13T15:54:51;29.55;;;15.45;;
70924;SDS011;58577;52.410;13.242;2022-11-13T15:57:56;30.90;;;15.35;;
70924;SDS011;58577;52.410;13.242;2022-11-13T16:01:01;30.15;;;15.57;;
70924;SDS011;58577;52.410;13.242;2022-11-13T16:04:05;30.85;;;15.75;;
70924;SDS011;58577;52.410;13.242;2022-11-13T16:07:15;29.20;;;14.90;;
70924;SDS011;58577;52.410;13.242;2022-11-13T16:10:21;28.23;;;15.95;;
70924;SDS011;58577;52.410;13.242;2022-11-13T16:13:28;29.63;;;16.23;;
70924;SDS011;58577;52.410;13.242;2022-11-13T16:16:36;30.42;;;16.25;;
70924;SDS011;58577;52.410;13.242;2022-11-13T16:19:44;29.50;;;15.75;;
70924;SDS011;58577;52.410;13.242;2022-11-13T16:22:51;28.88;;;15.55;;
70924;SDS011;58577;52.410;13.242;2022-11-13T16:25:55;28.85;;;15.77;;
70924;SDS011;58577;52.410;13.242;2022-11-13T16:28:59;30.85;;;15.95;;
70924;SDS011;58577;52.410;13.242;2022-11-13T16:32:07;29.75;;;15.77;;
70924;SDS011;58577;52.410;13.242;2022-11-13T16:35:18;29.15;;;15.40;;
70924;SDS011;58577;52.410;13.242;2022-11-13T16:38:23;29.38;;;14.52;;
70924;SDS011;58577;52.410;13.242;2022-11-13T16:41:29;30.10;;;15.35;;
70924;SDS011;58577;52.410;13.242;2022-11-13T16:44:34;29.50;;;15.45;;
70924;SDS011;58577;52.410;13.242;2022-11-13T16:47:39;28.90;;;14.52;;
70924;SDS011;58577;52.410;13.242;2022-11-13T16:50:44;26.83;;;14.48;;
70924;SDS011;58577;52.410;13.242;2022-11-13T16:53:48;28.80;;;13.98;;
70924;SDS011;58577;52.410;13.242;2022-11-13T16:56:53;29.38;;;14.57;;
70924;SDS011;58577;52.410;13.242;2022-11-13T16:59:58;28.10;;;14.95;;
70924;SDS011;58577;52.410;13.242;2022-11-13T17:03:02;29.70;;;14.90;;
70924;SDS011;58577;52.410;13.242;2022-11-13T17:06:26;29.60;;;15.00;;
70924;SDS011;58577;52.410;13.242;2022-11-13T17:09:32;39.08;;;16.45;;
70924;SDS011;58577;52.410;13.242;2022-11-13T17:12:36;30.75;;;15.07;;
70924;SDS011;58577;52.410;13.242;2022-11-13T17:15:42;33.22;;;16.13;;
70924;SDS011;58577;52.410;13.242;2022-11-13T17:18:46;26.65;;;13.68;;
70924;SDS011;58577;52.410;13.242;2022-11-13T17:21:52;29.48;;;15.43;;
70924;SDS011;58577;52.410;13.242;2022-11-13T17:24:57;28.33;;;14.68;;
70924;SDS011;58577;52.410;13.242;2022-11-13T17:28:01;32.20;;;14.85;;
70924;SDS011;58577;52.410;13.242;2022-11-13T17:31:08;30.73;;;14.90;;
70924;SDS011;58577;52.410;13.242;2022-11-13T17:34:15;33.40;;;16.63;;
70924;SDS011;58577;52.410;13.242;2022-11-13T17:37:20;34.17;;;16.92;;
70924;SDS011;58577;52.410;13.242;2022-11-13T17:40:25;31.67;;;15.57;;
70924;SDS011;58577;52.410;13.242;2022-11-13T17:43:29;29.48;;;15.00;;
70924;SDS011;58577;52.410;13.242;2022-11-13T17:46:33;31.95;;;15.90;;
70924;SDS011;58577;52.410;13.242;2022-11-13T17:49:38;34.38;;;16.20;;
70924;SDS011;58577;52.410;13.242;2022-11-13T17:52:42;38.05;;;17.92;;
70924;SDS011;58577;52.410;13.242;2022-11-13T17:55:53;32.83;;;14.77;;
70924;SDS011;58577;52.410;13.242;2022-11-13T17:58:59;30.95;;;14.80;;
70924;SDS011;58577;52.410;13.242;2022-11-13T18:02:03;29.50;;;14.93;;
70924;SDS011;58577;52.410;13.242;2022-11-13T18:05:07;31.55;;;15.60;;
70924;SDS011;58577;52.410;13.242;2022-11-13T18:08:13;31.80;;;15.98;;
70924;SDS011;58577;52.410;13.242;2022-11-13T18:11:18;31.38;;;14.95;;
70924;SDS011;58577;52.410;13.242;2022-11-13T18:14:25;33.47;;;15.52;;
70924;SDS011;58577;52.410;13.242;2022-11-13T18:17:29;32.65;;;16.55;;
70924;SDS011;58577;52.410;13.242;2022-11-13T18:20:37;37.55;;;16.70;;
70924;SDS011;58577;52.410;13.242;2022-11-13T18:23:43;33.90;;;16.50;;
70924;SDS011;58577;52.410;13.242;2022-11-13T18:26:47;39.70;;;16.60;;
70924;SDS011;58577;52.410;13.242;2022-11-13T18:29:52;38.53;;;16.83;;
70924;SDS011;58577;52.410;13.242;2022-11-13T18:32:56;35.22;;;15.38;;
70924;SDS011;58577;52.410;13.242;2022-11-13T18:36:01;33.58;;;16.15;;
70924;SDS011;58577;52.410;13.242;2022-11-13T18:39:07;37.15;;;16.42;;
70924;SDS011;58577;52.410;13.242;2022-11-13T18:42:13;39.05;;;17.13;;
70924;SDS011;58577;52.410;13.242;2022-11-13T18:45:17;37.00;;;16.90;;
70924;SDS011;58577;52.410;13.242;2022-11-13T18:48:21;40.22;;;17.33;;
70924;SDS011;58577;52.410;13.242;2022-11-13T18:51:26;39.47;;;18.35;;
70924;SDS011;58577;52.410;13.242;2022-11-13T18:54:32;40.13;;;18.90;;
70924;SDS011;58577;52.410;13.242;2022-11-13T18:57:37;41.47;;;17.27;;
70924;SDS011;58577;52.410;13.242;2022-11-13T19:00:42;34.67;;;16.58;;
70924;SDS011;58577;52.410;13.242;2022-11-13T19:03:46;39.47;;;19.50;;
70924;SDS011;58577;52.410;13.242;2022-11-13T19:06:51;42.00;;;18.15;;
70924;SDS011;58577;52.410;13.242;2022-11-13T19:09:55;43.00;;;18.65;;
70924;SDS011;58577;52.410;13.242;2022-11-13T19:13:00;41.03;;;18.30;;